sensor_id;sensor_type;location;lat;lon;timestamp;P1;durP1;ratioP1;P2;durP2;ratioP2
73456;SDS011;61691;53.072;6.582;2023-07-29T00:01:24;18.13;;;6.53;;
73456;SDS011;61691;53.072;6.582;2023-07-29T00:03:51;17.65;;;6.10;;
73456;SDS011;61691;53.072;6.582;2023-07-29T00:06:17;17.27;;;5.85;;
73456;SDS011;61691;53.072;6.582;2023-07-29T00:08:44;16.20;;;5.82;;
73456;SDS011;61691;53.072;6.582;2023-07-29T00:11:11;16.65;;;5.47;;
73456;SDS011;61691;53.072;6.582;2023-07-29T00:13:38;15.93;;;5.35;;
73456;SDS011;61691;53.072;6.582;2023-07-29T00:16:04;17.48;;;5.90;;
73456;SDS011;61691;53.072;6.582;2023-07-29T00:18:32;17.33;;;5.97;;
73456;SDS011;61691;53.072;6.582;2023-07-29T00:20:59;17.05;;;6.07;;
73456;SDS011;61691;53.072;6.582;2023-07-29T00:23:25;16.88;;;5.63;;
73456;SDS011;61691;53.072;6.582;2023-07-29T00:25:52;18.08;;;6.00;;
73456;SDS011;61691;53.072;6.582;2023-07-29T00:28:19;18.25;;;5.88;;
73456;SDS011;61691;53.072;6.582;2023-07-29T00:30:48;17.25;;;6.40;;
73456;SDS011;61691;53.072;6.582;2023-07-29T00:33:15;17.55;;;5.82;;
73456;SDS011;61691;53.072;6.582;2023-07-29T00:35:42;16.35;;;5.65;;
73456;SDS011;61691;53.072;6.582;2023-07-29T00:38:08;18.38;;;6.43;;
73456;SDS011;61691;53.072;6.582;2023-07-29T00:40:35;16.88;;;5.93;;
73456;SDS011;61691;53.072;6.582;2023-07-29T00:43:03;17.08;;;6.55;;
73456;SDS011;61691;53.072;6.582;2023-07-29T00:45:30;17.67;;;6.55;;
73456;SDS011;61691;53.072;6.582;2023-07-29T00:47:59;19.48;;;6.40;;
73456;SDS011;61691;53.072;6.582;2023-07-29T00:50:26;18.33;;;6.95;;
73456;SDS011;61691;53.072;6.582;2023-07-29T00:52:55;17.30;;;6.50;;
73456;SDS011;61691;53.072;6.582;2023-07-29T00:55:22;17.30;;;6.65;;
73456;SDS011;61691;53.072;6.582;2023-07-29T00:57:50;16.90;;;6.07;;
73456;SDS011;61691;53.072;6.582;2023-07-29T01:02:48;17.63;;;6.60;;
73456;SDS011;61691;53.072;6.582;2023-07-29T01:05:16;17.30;;;6.93;;
73456;SDS011;61691;53.072;6.582;2023-07-29T01:10:49;16.45;;;6.25;;
73456;SDS011;61691;53.072;6.582;2023-07-29T01:14:08;17.05;;;7.07;;
73456;SDS011;61691;53.072;6.582;2023-07-29T01:16:21;17.63;;;7.07;;
73456;SDS011;61691;53.072;6.582;2023-07-29T01:18:52;19.02;;;7.28;;
73456;SDS011;61691;53.072;6.582;2023-07-29T01:21:21;17.67;;;6.57;;
73456;SDS011;61691;53.072;6.582;2023-07-29T01:23:52;18.27;;;7.22;;
73456;SDS011;61691;53.072;6.582;2023-07-29T01:26:19;18.77;;;7.32;;
73456;SDS011;61691;53.072;6.582;2023-07-29T01:28:46;17.88;;;6.90;;
73456;SDS011;61691;53.072;6.582;2023-07-29T01:31:27;17.85;;;7.05;;
73456;SDS011;61691;53.072;6.582;2023-07-29T01:34:09;18.08;;;6.80;;
73456;SDS011;61691;53.072;6.582;2023-07-29T01:36:55;17.73;;;7.00;;
73456;SDS011;61691;53.072;6.582;2023-07-29T01:39:29;18.88;;;7.43;;
73456;SDS011;61691;53.072;6.582;2023-07-29T01:41:59;18.15;;;7.03;;
73456;SDS011;61691;53.072;6.582;2023-07-29T01:44:25;18.33;;;7.85;;
73456;SDS011;61691;53.072;6.582;2023-07-29T01:46:52;18.05;;;7.30;;
73456;SDS011;61691;53.072;6.582;2023-07-29T01:49:22;17.95;;;7.20;;
73456;SDS011;61691;53.072;6.582;2023-07-29T01:51:49;18.15;;;7.70;;
73456;SDS011;61691;53.072;6.582;2023-07-29T01:54:15;18.85;;;7.70;;
73456;SDS011;61691;53.072;6.582;2023-07-29T01:56:42;18.75;;;7.32;;
73456;SDS011;61691;53.072;6.582;2023-07-29T01:59:09;20.98;;;7.78;;
73456;SDS011;61691;53.072;6.582;2023-07-29T02:01:35;18.88;;;7.75;;
73456;SDS011;61691;53.072;6.582;2023-07-29T02:04:02;18.15;;;7.50;;
73456;SDS011;61691;53.072;6.582;2023-07-29T02:06:29;19.48;;;7.97;;
73456;SDS011;61691;53.072;6.582;2023-07-29T02:08:55;18.35;;;7.63;;
73456;SDS011;61691;53.072;6.582;2023-07-29T02:11:22;17.75;;;7.72;;
73456;SDS011;61691;53.072;6.582;2023-07-29T02:13:54;19.17;;;8.07;;
73456;SDS011;61691;53.072;6.582;2023-07-29T02:16:21;18.15;;;7.75;;
73456;SDS011;61691;53.072;6.582;2023-07-29T02:18:51;18.75;;;7.90;;
73456;SDS011;61691;53.072;6.582;2023-07-29T02:21:21;20.05;;;7.50;;
73456;SDS011;61691;53.072;6.582;2023-07-29T02:23:48;17.63;;;6.82;;
73456;SDS011;61691;53.072;6.582;2023-07-29T02:26:15;17.58;;;6.63;;
73456;SDS011;61691;53.072;6.582;2023-07-29T02:28:44;17.88;;;6.85;;
73456;SDS011;61691;53.072;6.582;2023-07-29T02:31:15;19.67;;;7.15;;
73456;SDS011;61691;53.072;6.582;2023-07-29T02:33:43;18.70;;;7.65;;
73456;SDS011;61691;53.072;6.582;2023-07-29T02:36:11;18.63;;;7.35;;
73456;SDS011;61691;53.072;6.582;2023-07-29T02:38:42;18.02;;;6.57;;
73456;SDS011;61691;53.072;6.582;2023-07-29T02:41:09;17.63;;;6.22;;
73456;SDS011;61691;53.072;6.582;2023-07-29T02:43:38;17.23;;;6.35;;
73456;SDS011;61691;53.072;6.582;2023-07-29T02:46:07;17.55;;;6.47;;
73456;SDS011;61691;53.072;6.582;2023-07-29T02:48:34;19.58;;;6.25;;
73456;SDS011;61691;53.072;6.582;2023-07-29T02:51:01;16.40;;;5.85;;
73456;SDS011;61691;53.072;6.582;2023-07-29T02:53:28;17.50;;;6.50;;
73456;SDS011;61691;53.072;6.582;2023-07-29T02:55:55;18.42;;;6.03;;
73456;SDS011;61691;53.072;6.582;2023-07-29T02:58:21;16.77;;;6.20;;
73456;SDS011;61691;53.072;6.582;2023-07-29T03:00:48;16.58;;;5.80;;
73456;SDS011;61691;53.072;6.582;2023-07-29T03:03:15;18.45;;;5.80;;
73456;SDS011;61691;53.072;6.582;2023-07-29T03:05:42;17.58;;;6.22;;
73456;SDS011;61691;53.072;6.582;2023-07-29T03:08:09;17.38;;;5.82;;
73456;SDS011;61691;53.072;6.582;2023-07-29T03:10:35;18.27;;;5.93;;
73456;SDS011;61691;53.072;6.582;2023-07-29T03:13:05;16.00;;;5.55;;
73456;SDS011;61691;53.072;6.582;2023-07-29T03:15:31;17.63;;;5.78;;
73456;SDS011;61691;53.072;6.582;2023-07-29T03:18:00;18.33;;;5.75;;
73456;SDS011;61691;53.072;6.582;2023-07-29T03:20:27;17.67;;;5.63;;
73456;SDS011;61691;53.072;6.582;2023-07-29T03:22:53;16.35;;;5.35;;
73456;SDS011;61691;53.072;6.582;2023-07-29T03:25:20;17.15;;;5.78;;
73456;SDS011;61691;53.072;6.582;2023-07-29T03:27:47;16.23;;;5.55;;
73456;SDS011;61691;53.072;6.582;2023-07-29T03:30:18;15.38;;;5.10;;
73456;SDS011;61691;53.072;6.582;2023-07-29T03:32:46;16.60;;;5.40;;
73456;SDS011;61691;53.072;6.582;2023-07-29T03:35:13;18.00;;;5.53;;
73456;SDS011;61691;53.072;6.582;2023-07-29T03:37:40;18.20;;;5.43;;
73456;SDS011;61691;53.072;6.582;2023-07-29T03:40:07;17.52;;;5.28;;
73456;SDS011;61691;53.072;6.582;2023-07-29T03:42:35;16.92;;;5.30;;
73456;SDS011;61691;53.072;6.582;2023-07-29T03:45:02;15.38;;;5.20;;
73456;SDS011;61691;53.072;6.582;2023-07-29T03:47:29;17.27;;;4.80;;
73456;SDS011;61691;53.072;6.582;2023-07-29T03:49:56;19.92;;;5.60;;
73456;SDS011;61691;53.072;6.582;2023-07-29T03:52:23;16.23;;;4.80;;
73456;SDS011;61691;53.072;6.582;2023-07-29T03:54:49;19.35;;;5.40;;
73456;SDS011;61691;53.072;6.582;2023-07-29T03:57:17;15.98;;;4.63;;
73456;SDS011;61691;53.072;6.582;2023-07-29T03:59:43;17.88;;;5.05;;
73456;SDS011;61691;53.072;6.582;2023-07-29T04:02:10;16.17;;;4.70;;
73456;SDS011;61691;53.072;6.582;2023-07-29T04:04:37;15.82;;;4.57;;
73456;SDS011;61691;53.072;6.582;2023-07-29T04:07:03;17.63;;;4.30;;
73456;SDS011;61691;53.072;6.582;2023-07-29T04:09:30;18.13;;;5.20;;
73456;SDS011;61691;53.072;6.582;2023-07-29T04:11:57;15.13;;;4.38;;
73456;SDS011;61691;53.072;6.582;2023-07-29T04:14:24;15.55;;;4.15;;
73456;SDS011;61691;53.072;6.582;2023-07-29T04:16:51;16.83;;;4.45;;
73456;SDS011;61691;53.072;6.582;2023-07-29T04:19:17;18.35;;;4.75;;
73456;SDS011;61691;53.072;6.582;2023-07-29T04:21:44;15.27;;;4.20;;
73456;SDS011;61691;53.072;6.582;2023-07-29T04:24:12;15.70;;;4.38;;
73456;SDS011;61691;53.072;6.582;2023-07-29T04:26:39;16.48;;;4.20;;
73456;SDS011;61691;53.072;6.582;2023-07-29T04:29:05;15.43;;;4.10;;
73456;SDS011;61691;53.072;6.582;2023-07-29T04:31:32;15.65;;;4.20;;
73456;SDS011;61691;53.072;6.582;2023-07-29T04:33:59;15.52;;;4.00;;
73456;SDS011;61691;53.072;6.582;2023-07-29T04:36:25;18.52;;;4.10;;
73456;SDS011;61691;53.072;6.582;2023-07-29T04:38:52;13.88;;;3.80;;
73456;SDS011;61691;53.072;6.582;2023-07-29T04:41:19;12.60;;;3.55;;
73456;SDS011;61691;53.072;6.582;2023-07-29T04:43:46;14.13;;;3.63;;
73456;SDS011;61691;53.072;6.582;2023-07-29T04:46:13;13.40;;;3.60;;
73456;SDS011;61691;53.072;6.582;2023-07-29T04:48:39;14.45;;;3.63;;
73456;SDS011;61691;53.072;6.582;2023-07-29T04:51:06;15.02;;;3.92;;
73456;SDS011;61691;53.072;6.582;2023-07-29T04:53:33;15.73;;;3.85;;
73456;SDS011;61691;53.072;6.582;2023-07-29T04:56:01;13.40;;;3.60;;
73456;SDS011;61691;53.072;6.582;2023-07-29T04:58:29;13.05;;;3.60;;
73456;SDS011;61691;53.072;6.582;2023-07-29T05:00:56;13.15;;;3.42;;
73456;SDS011;61691;53.072;6.582;2023-07-29T05:03:22;14.70;;;3.58;;
73456;SDS011;61691;53.072;6.582;2023-07-29T05:05:49;14.57;;;3.50;;
73456;SDS011;61691;53.072;6.582;2023-07-29T05:08:17;15.32;;;4.07;;
73456;SDS011;61691;53.072;6.582;2023-07-29T05:10:48;13.13;;;3.20;;
73456;SDS011;61691;53.072;6.582;2023-07-29T05:13:16;14.20;;;3.65;;
73456;SDS011;61691;53.072;6.582;2023-07-29T05:15:44;13.38;;;3.70;;
73456;SDS011;61691;53.072;6.582;2023-07-29T05:18:11;12.65;;;3.15;;
73456;SDS011;61691;53.072;6.582;2023-07-29T05:20:38;12.75;;;3.25;;
73456;SDS011;61691;53.072;6.582;2023-07-29T05:23:04;14.20;;;3.72;;
73456;SDS011;61691;53.072;6.582;2023-07-29T05:25:31;14.60;;;3.40;;
73456;SDS011;61691;53.072;6.582;2023-07-29T05:27:58;13.82;;;3.45;;
73456;SDS011;61691;53.072;6.582;2023-07-29T05:30:24;14.70;;;3.60;;
73456;SDS011;61691;53.072;6.582;2023-07-29T05:32:53;15.77;;;3.25;;
73456;SDS011;61691;53.072;6.582;2023-07-29T05:35:20;14.13;;;3.38;;
73456;SDS011;61691;53.072;6.582;2023-07-29T05:37:46;13.27;;;3.25;;
73456;SDS011;61691;53.072;6.582;2023-07-29T05:40:13;12.70;;;2.90;;
73456;SDS011;61691;53.072;6.582;2023-07-29T05:42:40;15.75;;;3.20;;
73456;SDS011;61691;53.072;6.582;2023-07-29T05:45:07;14.43;;;3.22;;
73456;SDS011;61691;53.072;6.582;2023-07-29T05:47:34;13.75;;;3.30;;
73456;SDS011;61691;53.072;6.582;2023-07-29T05:50:01;13.07;;;3.15;;
73456;SDS011;61691;53.072;6.582;2023-07-29T05:52:31;12.38;;;2.88;;
73456;SDS011;61691;53.072;6.582;2023-07-29T05:54:58;13.02;;;3.22;;
73456;SDS011;61691;53.072;6.582;2023-07-29T05:57:25;14.13;;;3.10;;
73456;SDS011;61691;53.072;6.582;2023-07-29T05:59:51;11.48;;;3.00;;
73456;SDS011;61691;53.072;6.582;2023-07-29T06:02:18;15.55;;;3.55;;
73456;SDS011;61691;53.072;6.582;2023-07-29T06:04:45;16.05;;;3.15;;
73456;SDS011;61691;53.072;6.582;2023-07-29T06:07:11;16.45;;;3.65;;
73456;SDS011;61691;53.072;6.582;2023-07-29T06:09:38;14.75;;;3.35;;
73456;SDS011;61691;53.072;6.582;2023-07-29T06:12:06;13.82;;;3.55;;
73456;SDS011;61691;53.072;6.582;2023-07-29T06:14:33;12.95;;;3.20;;
73456;SDS011;61691;53.072;6.582;2023-07-29T06:17:00;13.98;;;3.63;;
73456;SDS011;61691;53.072;6.582;2023-07-29T06:19:27;15.32;;;3.33;;
73456;SDS011;61691;53.072;6.582;2023-07-29T06:21:55;12.95;;;3.42;;
73456;SDS011;61691;53.072;6.582;2023-07-29T06:24:22;16.88;;;3.67;;
73456;SDS011;61691;53.072;6.582;2023-07-29T06:26:48;14.52;;;3.28;;
73456;SDS011;61691;53.072;6.582;2023-07-29T06:29:15;9.95;;;2.80;;
73456;SDS011;61691;53.072;6.582;2023-07-29T06:31:42;15.60;;;2.95;;
73456;SDS011;61691;53.072;6.582;2023-07-29T06:34:08;9.82;;;2.50;;
73456;SDS011;61691;53.072;6.582;2023-07-29T06:36:35;13.60;;;2.92;;
73456;SDS011;61691;53.072;6.582;2023-07-29T06:39:02;12.00;;;2.90;;
73456;SDS011;61691;53.072;6.582;2023-07-29T06:41:29;11.95;;;2.67;;
73456;SDS011;61691;53.072;6.582;2023-07-29T06:43:56;14.10;;;3.05;;
73456;SDS011;61691;53.072;6.582;2023-07-29T06:46:23;13.18;;;2.75;;
73456;SDS011;61691;53.072;6.582;2023-07-29T06:48:50;16.33;;;3.30;;
73456;SDS011;61691;53.072;6.582;2023-07-29T06:51:16;11.45;;;2.88;;
73456;SDS011;61691;53.072;6.582;2023-07-29T06:53:43;11.38;;;2.70;;
73456;SDS011;61691;53.072;6.582;2023-07-29T06:56:10;14.98;;;2.80;;
73456;SDS011;61691;53.072;6.582;2023-07-29T06:58:36;13.27;;;3.33;;
73456;SDS011;61691;53.072;6.582;2023-07-29T07:01:03;15.05;;;3.30;;
73456;SDS011;61691;53.072;6.582;2023-07-29T07:03:30;15.80;;;3.83;;
73456;SDS011;61691;53.072;6.582;2023-07-29T07:05:57;15.43;;;3.10;;
73456;SDS011;61691;53.072;6.582;2023-07-29T07:08:24;10.85;;;2.50;;
73456;SDS011;61691;53.072;6.582;2023-07-29T07:10:51;13.10;;;3.33;;
73456;SDS011;61691;53.072;6.582;2023-07-29T07:13:17;15.57;;;3.35;;
73456;SDS011;61691;53.072;6.582;2023-07-29T07:15:44;15.95;;;3.40;;
73456;SDS011;61691;53.072;6.582;2023-07-29T07:18:11;15.27;;;3.22;;
73456;SDS011;61691;53.072;6.582;2023-07-29T07:20:38;15.52;;;3.22;;
73456;SDS011;61691;53.072;6.582;2023-07-29T07:23:04;14.07;;;3.25;;
73456;SDS011;61691;53.072;6.582;2023-07-29T07:25:37;15.70;;;3.80;;
73456;SDS011;61691;53.072;6.582;2023-07-29T07:28:04;16.50;;;3.92;;
73456;SDS011;61691;53.072;6.582;2023-07-29T07:30:30;15.63;;;3.35;;
73456;SDS011;61691;53.072;6.582;2023-07-29T07:32:57;14.95;;;3.67;;
73456;SDS011;61691;53.072;6.582;2023-07-29T07:35:24;15.10;;;3.70;;
73456;SDS011;61691;53.072;6.582;2023-07-29T07:37:51;16.55;;;3.60;;
73456;SDS011;61691;53.072;6.582;2023-07-29T07:40:17;17.60;;;3.80;;
73456;SDS011;61691;53.072;6.582;2023-07-29T07:42:44;17.35;;;4.32;;
73456;SDS011;61691;53.072;6.582;2023-07-29T07:45:11;20.20;;;4.40;;
73456;SDS011;61691;53.072;6.582;2023-07-29T07:47:37;15.88;;;3.85;;
73456;SDS011;61691;53.072;6.582;2023-07-29T07:50:04;15.07;;;3.33;;
73456;SDS011;61691;53.072;6.582;2023-07-29T07:52:31;15.65;;;3.33;;
73456;SDS011;61691;53.072;6.582;2023-07-29T07:54:58;17.52;;;3.47;;
73456;SDS011;61691;53.072;6.582;2023-07-29T07:57:24;17.27;;;3.45;;
73456;SDS011;61691;53.072;6.582;2023-07-29T07:59:51;13.35;;;3.38;;
73456;SDS011;61691;53.072;6.582;2023-07-29T08:02:18;14.50;;;3.40;;
73456;SDS011;61691;53.072;6.582;2023-07-29T08:04:46;14.57;;;3.40;;
73456;SDS011;61691;53.072;6.582;2023-07-29T08:07:13;14.32;;;2.88;;
73456;SDS011;61691;53.072;6.582;2023-07-29T08:09:40;13.38;;;2.90;;
73456;SDS011;61691;53.072;6.582;2023-07-29T08:12:07;15.93;;;3.35;;
73456;SDS011;61691;53.072;6.582;2023-07-29T08:14:34;13.55;;;3.17;;
73456;SDS011;61691;53.072;6.582;2023-07-29T08:17:00;14.32;;;3.00;;
73456;SDS011;61691;53.072;6.582;2023-07-29T08:19:28;12.55;;;2.75;;
73456;SDS011;61691;53.072;6.582;2023-07-29T08:21:54;14.32;;;3.40;;
73456;SDS011;61691;53.072;6.582;2023-07-29T08:24:21;13.27;;;2.60;;
73456;SDS011;61691;53.072;6.582;2023-07-29T08:26:48;15.13;;;2.95;;
73456;SDS011;61691;53.072;6.582;2023-07-29T08:29:14;16.05;;;3.10;;
73456;SDS011;61691;53.072;6.582;2023-07-29T08:31:41;12.18;;;3.35;;
73456;SDS011;61691;53.072;6.582;2023-07-29T08:34:08;12.23;;;2.90;;
73456;SDS011;61691;53.072;6.582;2023-07-29T08:36:35;13.93;;;2.80;;
73456;SDS011;61691;53.072;6.582;2023-07-29T08:39:02;12.23;;;2.60;;
73456;SDS011;61691;53.072;6.582;2023-07-29T08:41:29;13.95;;;3.20;;
73456;SDS011;61691;53.072;6.582;2023-07-29T08:44:12;12.70;;;2.55;;
73456;SDS011;61691;53.072;6.582;2023-07-29T08:46:50;13.27;;;2.65;;
73456;SDS011;61691;53.072;6.582;2023-07-29T08:49:20;12.73;;;2.92;;
73456;SDS011;61691;53.072;6.582;2023-07-29T08:51:49;15.20;;;3.08;;
73456;SDS011;61691;53.072;6.582;2023-07-29T08:54:19;12.32;;;2.50;;
73456;SDS011;61691;53.072;6.582;2023-07-29T08:56:46;10.02;;;2.30;;
73456;SDS011;61691;53.072;6.582;2023-07-29T08:59:13;11.98;;;2.65;;
73456;SDS011;61691;53.072;6.582;2023-07-29T09:01:42;11.85;;;2.25;;
73456;SDS011;61691;53.072;6.582;2023-07-29T09:04:09;11.43;;;2.30;;
73456;SDS011;61691;53.072;6.582;2023-07-29T09:06:36;12.32;;;2.20;;
73456;SDS011;61691;53.072;6.582;2023-07-29T09:09:07;11.40;;;2.50;;
73456;SDS011;61691;53.072;6.582;2023-07-29T09:11:34;12.65;;;2.42;;
73456;SDS011;61691;53.072;6.582;2023-07-29T09:14:01;13.43;;;3.20;;
73456;SDS011;61691;53.072;6.582;2023-07-29T09:16:28;11.05;;;2.40;;
73456;SDS011;61691;53.072;6.582;2023-07-29T09:18:55;10.10;;;2.30;;
73456;SDS011;61691;53.072;6.582;2023-07-29T09:21:23;12.95;;;2.85;;
73456;SDS011;61691;53.072;6.582;2023-07-29T09:23:55;10.93;;;2.58;;
73456;SDS011;61691;53.072;6.582;2023-07-29T09:26:23;10.25;;;2.08;;
73456;SDS011;61691;53.072;6.582;2023-07-29T09:28:55;13.55;;;2.33;;
73456;SDS011;61691;53.072;6.582;2023-07-29T09:31:23;11.05;;;2.20;;
73456;SDS011;61691;53.072;6.582;2023-07-29T09:34:00;10.95;;;2.40;;
73456;SDS011;61691;53.072;6.582;2023-07-29T09:36:32;16.48;;;3.17;;
73456;SDS011;61691;53.072;6.582;2023-07-29T09:39:01;9.00;;;2.10;;
73456;SDS011;61691;53.072;6.582;2023-07-29T09:41:29;11.82;;;2.17;;
73456;SDS011;61691;53.072;6.582;2023-07-29T09:43:59;10.77;;;2.28;;
73456;SDS011;61691;53.072;6.582;2023-07-29T09:46:34;12.77;;;2.40;;
73456;SDS011;61691;53.072;6.582;2023-07-29T09:49:04;9.63;;;2.05;;
73456;SDS011;61691;53.072;6.582;2023-07-29T09:51:36;9.65;;;1.90;;
73456;SDS011;61691;53.072;6.582;2023-07-29T09:54:07;9.57;;;2.40;;
73456;SDS011;61691;53.072;6.582;2023-07-29T09:56:34;11.27;;;2.00;;
73456;SDS011;61691;53.072;6.582;2023-07-29T09:59:07;7.45;;;1.95;;
73456;SDS011;61691;53.072;6.582;2023-07-29T10:01:34;14.85;;;2.15;;
73456;SDS011;61691;53.072;6.582;2023-07-29T10:04:03;9.87;;;2.03;;
73456;SDS011;61691;53.072;6.582;2023-07-29T10:06:30;12.98;;;2.08;;
73456;SDS011;61691;53.072;6.582;2023-07-29T10:09:02;11.38;;;2.35;;
73456;SDS011;61691;53.072;6.582;2023-07-29T10:11:29;12.07;;;2.20;;
73456;SDS011;61691;53.072;6.582;2023-07-29T10:13:56;6.50;;;1.90;;
73456;SDS011;61691;53.072;6.582;2023-07-29T10:16:35;8.90;;;2.00;;
73456;SDS011;61691;53.072;6.582;2023-07-29T10:19:04;10.37;;;2.07;;
73456;SDS011;61691;53.072;6.582;2023-07-29T10:21:31;11.48;;;2.45;;
73456;SDS011;61691;53.072;6.582;2023-07-29T10:24:00;12.05;;;2.20;;
73456;SDS011;61691;53.072;6.582;2023-07-29T10:26:28;13.57;;;2.38;;
73456;SDS011;61691;53.072;6.582;2023-07-29T10:28:59;9.60;;;2.03;;
73456;SDS011;61691;53.072;6.582;2023-07-29T10:31:32;9.48;;;2.30;;
73456;SDS011;61691;53.072;6.582;2023-07-29T10:33:59;11.02;;;2.40;;
73456;SDS011;61691;53.072;6.582;2023-07-29T10:36:26;14.88;;;2.25;;
73456;SDS011;61691;53.072;6.582;2023-07-29T10:38:54;10.98;;;1.98;;
73456;SDS011;61691;53.072;6.582;2023-07-29T10:41:21;9.20;;;2.15;;
73456;SDS011;61691;53.072;6.582;2023-07-29T10:43:49;10.02;;;1.98;;
73456;SDS011;61691;53.072;6.582;2023-07-29T10:46:16;10.07;;;2.03;;
73456;SDS011;61691;53.072;6.582;2023-07-29T10:51:27;11.90;;;1.90;;
73456;SDS011;61691;53.072;6.582;2023-07-29T10:54:10;7.93;;;1.92;;
73456;SDS011;61691;53.072;6.582;2023-07-29T10:56:42;11.07;;;2.13;;
73456;SDS011;61691;53.072;6.582;2023-07-29T11:01:51;12.25;;;1.80;;
73456;SDS011;61691;53.072;6.582;2023-07-29T11:20:07;8.20;;;1.90;;
73456;SDS011;61691;53.072;6.582;2023-07-29T11:22:34;7.85;;;1.70;;
73456;SDS011;61691;53.072;6.582;2023-07-29T11:25:03;7.82;;;1.70;;
73456;SDS011;61691;53.072;6.582;2023-07-29T11:27:31;8.75;;;1.95;;
73456;SDS011;61691;53.072;6.582;2023-07-29T11:30:02;7.53;;;1.77;;
73456;SDS011;61691;53.072;6.582;2023-07-29T11:32:32;7.32;;;1.70;;
73456;SDS011;61691;53.072;6.582;2023-07-29T11:35:03;8.90;;;1.80;;
73456;SDS011;61691;53.072;6.582;2023-07-29T11:37:32;10.80;;;1.80;;
73456;SDS011;61691;53.072;6.582;2023-07-29T11:40:00;8.95;;;2.10;;
73456;SDS011;61691;53.072;6.582;2023-07-29T11:42:27;11.25;;;2.33;;
73456;SDS011;61691;53.072;6.582;2023-07-29T11:44:57;12.27;;;2.00;;
73456;SDS011;61691;53.072;6.582;2023-07-29T11:47:24;12.70;;;2.60;;
73456;SDS011;61691;53.072;6.582;2023-07-29T11:49:52;10.60;;;2.13;;
73456;SDS011;61691;53.072;6.582;2023-07-29T11:52:19;11.90;;;2.30;;
73456;SDS011;61691;53.072;6.582;2023-07-29T11:54:47;11.35;;;2.30;;
73456;SDS011;61691;53.072;6.582;2023-07-29T11:57:16;11.65;;;2.33;;
73456;SDS011;61691;53.072;6.582;2023-07-29T11:59:44;13.80;;;2.13;;
73456;SDS011;61691;53.072;6.582;2023-07-29T12:02:13;13.63;;;3.00;;
73456;SDS011;61691;53.072;6.582;2023-07-29T12:04:41;12.27;;;2.10;;
73456;SDS011;61691;53.072;6.582;2023-07-29T12:07:10;16.58;;;3.22;;
73456;SDS011;61691;53.072;6.582;2023-07-29T12:09:40;15.68;;;3.33;;
73456;SDS011;61691;53.072;6.582;2023-07-29T12:12:08;12.73;;;2.83;;
73456;SDS011;61691;53.072;6.582;2023-07-29T12:14:35;12.48;;;2.78;;
73456;SDS011;61691;53.072;6.582;2023-07-29T12:17:03;13.27;;;3.28;;
73456;SDS011;61691;53.072;6.582;2023-07-29T12:19:31;13.13;;;2.90;;
73456;SDS011;61691;53.072;6.582;2023-07-29T12:22:00;16.73;;;3.55;;
73456;SDS011;61691;53.072;6.582;2023-07-29T12:24:29;14.65;;;2.58;;
73456;SDS011;61691;53.072;6.582;2023-07-29T12:26:56;14.13;;;3.42;;
73456;SDS011;61691;53.072;6.582;2023-07-29T12:29:23;16.05;;;2.83;;
73456;SDS011;61691;53.072;6.582;2023-07-29T12:31:56;13.25;;;2.90;;
73456;SDS011;61691;53.072;6.582;2023-07-29T12:34:27;15.93;;;2.83;;
73456;SDS011;61691;53.072;6.582;2023-07-29T12:36:55;14.70;;;2.80;;
73456;SDS011;61691;53.072;6.582;2023-07-29T12:39:24;13.20;;;2.90;;
73456;SDS011;61691;53.072;6.582;2023-07-29T12:41:54;15.90;;;3.13;;
73456;SDS011;61691;53.072;6.582;2023-07-29T12:44:25;15.43;;;2.88;;
73456;SDS011;61691;53.072;6.582;2023-07-29T12:46:56;12.10;;;2.88;;
73456;SDS011;61691;53.072;6.582;2023-07-29T12:49:23;10.50;;;2.40;;
73456;SDS011;61691;53.072;6.582;2023-07-29T12:51:51;10.45;;;2.00;;
73456;SDS011;61691;53.072;6.582;2023-07-29T12:54:18;10.05;;;2.60;;
73456;SDS011;61691;53.072;6.582;2023-07-29T12:56:44;11.50;;;2.72;;
73456;SDS011;61691;53.072;6.582;2023-07-29T12:59:11;9.48;;;2.17;;
73456;SDS011;61691;53.072;6.582;2023-07-29T13:01:38;10.05;;;2.30;;
73456;SDS011;61691;53.072;6.582;2023-07-29T13:04:04;11.70;;;2.25;;
73456;SDS011;61691;53.072;6.582;2023-07-29T13:06:31;11.02;;;2.20;;
73456;SDS011;61691;53.072;6.582;2023-07-29T13:08:58;10.73;;;2.85;;
73456;SDS011;61691;53.072;6.582;2023-07-29T13:11:25;9.82;;;2.03;;
73456;SDS011;61691;53.072;6.582;2023-07-29T13:13:52;14.85;;;2.60;;
73456;SDS011;61691;53.072;6.582;2023-07-29T13:16:19;8.00;;;2.20;;
73456;SDS011;61691;53.072;6.582;2023-07-29T13:18:46;11.85;;;2.30;;
73456;SDS011;61691;53.072;6.582;2023-07-29T13:21:13;12.70;;;2.50;;
73456;SDS011;61691;53.072;6.582;2023-07-29T13:23:39;10.18;;;2.20;;
73456;SDS011;61691;53.072;6.582;2023-07-29T13:26:06;10.60;;;2.00;;
73456;SDS011;61691;53.072;6.582;2023-07-29T13:28:33;13.93;;;2.65;;
73456;SDS011;61691;53.072;6.582;2023-07-29T13:31:00;6.93;;;1.75;;
73456;SDS011;61691;53.072;6.582;2023-07-29T13:33:27;8.27;;;1.90;;
73456;SDS011;61691;53.072;6.582;2023-07-29T13:35:54;8.52;;;1.70;;
73456;SDS011;61691;53.072;6.582;2023-07-29T13:38:21;4.50;;;1.30;;
73456;SDS011;61691;53.072;6.582;2023-07-29T13:40:47;5.15;;;1.27;;
73456;SDS011;61691;53.072;6.582;2023-07-29T13:43:17;11.25;;;1.58;;
73456;SDS011;61691;53.072;6.582;2023-07-29T13:45:44;6.80;;;1.52;;
73456;SDS011;61691;53.072;6.582;2023-07-29T13:48:11;7.22;;;1.65;;
73456;SDS011;61691;53.072;6.582;2023-07-29T13:50:38;6.30;;;1.50;;
73456;SDS011;61691;53.072;6.582;2023-07-29T13:53:05;7.45;;;1.60;;
73456;SDS011;61691;53.072;6.582;2023-07-29T13:55:32;7.07;;;1.77;;
73456;SDS011;61691;53.072;6.582;2023-07-29T13:57:58;7.45;;;1.88;;
73456;SDS011;61691;53.072;6.582;2023-07-29T14:00:25;10.82;;;2.53;;
73456;SDS011;61691;53.072;6.582;2023-07-29T14:02:52;6.70;;;1.75;;
73456;SDS011;61691;53.072;6.582;2023-07-29T14:05:19;8.98;;;2.05;;
73456;SDS011;61691;53.072;6.582;2023-07-29T14:07:45;6.75;;;1.70;;
73456;SDS011;61691;53.072;6.582;2023-07-29T14:10:12;6.47;;;1.63;;
73456;SDS011;61691;53.072;6.582;2023-07-29T14:12:39;8.02;;;1.88;;
73456;SDS011;61691;53.072;6.582;2023-07-29T14:15:06;7.95;;;1.83;;
73456;SDS011;61691;53.072;6.582;2023-07-29T14:17:33;9.40;;;1.90;;
73456;SDS011;61691;53.072;6.582;2023-07-29T14:20:00;7.13;;;1.77;;
73456;SDS011;61691;53.072;6.582;2023-07-29T14:22:27;11.60;;;1.90;;
73456;SDS011;61691;53.072;6.582;2023-07-29T14:24:54;8.20;;;1.90;;
73456;SDS011;61691;53.072;6.582;2023-07-29T14:27:23;8.40;;;1.90;;
73456;SDS011;61691;53.072;6.582;2023-07-29T14:29:50;8.57;;;1.70;;
73456;SDS011;61691;53.072;6.582;2023-07-29T14:32:17;7.72;;;1.65;;
73456;SDS011;61691;53.072;6.582;2023-07-29T14:34:47;8.67;;;1.70;;
73456;SDS011;61691;53.072;6.582;2023-07-29T14:37:15;7.95;;;1.73;;
73456;SDS011;61691;53.072;6.582;2023-07-29T14:39:42;4.78;;;1.60;;
73456;SDS011;61691;53.072;6.582;2023-07-29T14:42:08;8.23;;;2.28;;
73456;SDS011;61691;53.072;6.582;2023-07-29T14:44:35;10.15;;;1.60;;
73456;SDS011;61691;53.072;6.582;2023-07-29T14:47:02;10.85;;;2.13;;
73456;SDS011;61691;53.072;6.582;2023-07-29T14:49:29;8.02;;;1.80;;
73456;SDS011;61691;53.072;6.582;2023-07-29T14:51:56;9.80;;;2.03;;
73456;SDS011;61691;53.072;6.582;2023-07-29T14:54:22;11.07;;;1.80;;
73456;SDS011;61691;53.072;6.582;2023-07-29T14:56:49;10.90;;;1.90;;
73456;SDS011;61691;53.072;6.582;2023-07-29T14:59:16;9.57;;;1.90;;
73456;SDS011;61691;53.072;6.582;2023-07-29T15:01:43;8.20;;;2.10;;
73456;SDS011;61691;53.072;6.582;2023-07-29T15:04:09;6.88;;;1.65;;
73456;SDS011;61691;53.072;6.582;2023-07-29T15:06:36;8.75;;;1.70;;